createdAt,value
2023-01-08T00:01:11.305Z,3.60
2023-01-08T00:03:39.659Z,3.59
2023-01-08T00:06:11.202Z,3.63
2023-01-08T00:08:38.392Z,3.60
2023-01-08T00:11:05.618Z,3.56
2023-01-08T00:13:33.084Z,3.45
2023-01-08T00:16:08.736Z,3.46
2023-01-08T00:18:35.965Z,3.50
2023-01-08T00:21:03.866Z,3.52
2023-01-08T00:23:31.018Z,3.51
2023-01-08T00:26:01.787Z,3.57
2023-01-08T00:28:29.271Z,3.57
2023-01-08T00:30:56.532Z,3.58
2023-01-08T00:33:23.745Z,3.58
2023-01-08T00:35:51.166Z,3.60
2023-01-08T00:38:18.421Z,3.60
2023-01-08T00:40:46.021Z,3.66
2023-01-08T00:43:13.190Z,3.67
2023-01-08T00:45:40.328Z,3.69
2023-01-08T00:48:07.537Z,3.85
2023-01-08T00:50:34.914Z,4.17
2023-01-08T00:53:03.475Z,4.24
2023-01-08T00:55:30.800Z,4.17
2023-01-08T00:57:58.509Z,4.17
2023-01-08T01:00:25.744Z,4.12
2023-01-08T01:02:52.928Z,4.11
2023-01-08T01:05:39.974Z,4.09
2023-01-08T01:08:07.031Z,4.10
2023-01-08T01:10:34.083Z,4.08
2023-01-08T01:13:01.528Z,4.07
2023-01-08T01:15:28.664Z,4.07
2023-01-08T01:17:55.693Z,4.05
2023-01-08T01:20:23.831Z,4.05
2023-01-08T01:22:51.279Z,4.01
2023-01-08T01:25:18.509Z,4.01
2023-01-08T01:27:45.914Z,4.04
2023-01-08T01:30:13.185Z,4.09
2023-01-08T01:32:40.581Z,4.11
2023-01-08T01:35:08.021Z,4.14
2023-01-08T01:37:35.060Z,4.09
2023-01-08T01:40:02.727Z,4.02
2023-01-08T01:42:41.788Z,3.97
2023-01-08T01:45:22.818Z,3.87
2023-01-08T01:47:55.994Z,3.91
2023-01-08T01:50:35.918Z,3.87
2023-01-08T01:53:13.101Z,3.82
2023-01-08T01:55:43.594Z,3.79
2023-01-08T01:58:18.462Z,3.73
2023-01-08T02:00:46.019Z,3.70
2023-01-08T02:03:14.477Z,3.63
2023-01-08T02:05:55.763Z,3.62
2023-01-08T02:08:35.421Z,3.60
2023-01-08T02:11:13.660Z,3.53
2023-01-08T02:13:45.272Z,3.53
2023-01-08T02:16:42.412Z,3.54
2023-01-08T02:19:30.785Z,3.58
2023-01-08T02:22:06.203Z,3.54
2023-01-08T02:24:54.911Z,3.51
2023-01-08T02:27:24.604Z,3.48
2023-01-08T02:29:53.398Z,3.53
2023-01-08T02:32:26.058Z,3.63
2023-01-08T02:34:54.049Z,3.76
2023-01-08T02:37:21.379Z,3.87
2023-01-08T02:40:01.177Z,3.98
2023-01-08T02:42:40.850Z,4.09
2023-01-08T02:45:41.941Z,4.12
2023-01-08T02:48:31.536Z,4.23
2023-01-08T02:51:15.689Z,4.22
2023-01-08T02:53:47.476Z,4.17
2023-01-08T02:56:17.767Z,4.10
2023-01-08T02:58:46.859Z,4.19
2023-01-08T03:01:16.473Z,4.24
2023-01-08T03:03:48.020Z,4.22
2023-01-08T03:06:18.321Z,4.32
2023-01-08T03:08:48.084Z,4.45
2023-01-08T03:11:17.610Z,4.47
2023-01-08T03:13:53.386Z,4.47
2023-01-08T03:16:24.714Z,4.45
2023-01-08T03:19:03.035Z,4.43
2023-01-08T03:21:31.175Z,4.36
2023-01-08T03:23:58.719Z,4.29
2023-01-08T03:26:26.561Z,4.29
2023-01-08T03:28:55.652Z,4.28
2023-01-08T03:31:24.234Z,4.22
2023-01-08T03:33:51.461Z,4.27
2023-01-08T03:36:21.819Z,4.38
2023-01-08T03:38:54.536Z,4.54
2023-01-08T03:41:22.816Z,4.61
2023-01-08T03:43:50.260Z,4.63
2023-01-08T03:46:24.376Z,4.62
2023-01-08T03:48:51.763Z,4.63
2023-01-08T03:51:18.902Z,4.59
2023-01-08T03:53:47.295Z,4.60
2023-01-08T03:56:14.355Z,4.50
2023-01-08T03:58:41.735Z,4.46
2023-01-08T04:01:09.107Z,4.43
2023-01-08T04:03:36.555Z,4.40
2023-01-08T04:06:03.720Z,4.43
2023-01-08T04:08:30.851Z,4.37
2023-01-08T04:10:57.984Z,4.36
2023-01-08T04:13:25.075Z,4.33
2023-01-08T04:15:52.197Z,4.32
2023-01-08T04:18:19.298Z,4.35
2023-01-08T04:20:47.445Z,4.31
2023-01-08T04:23:14.715Z,4.32
2023-01-08T04:25:41.925Z,4.35
2023-01-08T04:28:09.068Z,4.43
2023-01-08T04:30:36.992Z,4.42
2023-01-08T04:33:04.097Z,4.45
2023-01-08T04:35:31.273Z,4.65
2023-01-08T04:37:58.290Z,4.93
2023-01-08T04:40:25.410Z,5.24
2023-01-08T04:42:52.717Z,5.38
2023-01-08T04:45:19.797Z,5.51
2023-01-08T04:47:46.962Z,5.57
2023-01-08T04:50:14.029Z,5.63
2023-01-08T04:52:41.064Z,5.65
2023-01-08T04:55:08.192Z,5.71
2023-01-08T04:57:35.253Z,5.80
2023-01-08T05:00:02.309Z,5.94
2023-01-08T05:02:29.706Z,5.97
2023-01-08T05:04:56.864Z,6.01
2023-01-08T05:07:23.955Z,6.05
2023-01-08T05:09:51.047Z,6.12
2023-01-08T05:12:18.244Z,6.09
2023-01-08T05:14:46.274Z,6.10
2023-01-08T05:17:13.344Z,6.08
2023-01-08T05:19:40.474Z,6.08
2023-01-08T05:22:07.555Z,6.12
2023-01-08T05:24:34.688Z,6.15
2023-01-08T05:27:01.841Z,6.18
2023-01-08T05:29:28.913Z,6.21
2023-01-08T05:31:55.953Z,6.18
2023-01-08T05:34:23.230Z,6.17
2023-01-08T05:36:50.384Z,6.12
2023-01-08T05:39:17.534Z,6.06
2023-01-08T05:41:44.606Z,5.94
2023-01-08T05:44:11.735Z,5.87
2023-01-08T05:46:38.932Z,5.83
2023-01-08T05:49:06.138Z,5.79
2023-01-08T05:51:33.292Z,5.75
2023-01-08T05:54:00.441Z,5.69
2023-01-08T05:56:27.481Z,5.74
2023-01-08T05:58:55.294Z,5.72
2023-01-08T06:01:22.691Z,5.68
2023-01-08T06:03:49.899Z,5.67
2023-01-08T06:06:16.992Z,5.61
2023-01-08T06:08:44.042Z,5.58
2023-01-08T06:11:11.918Z,5.53
2023-01-08T06:13:41.776Z,5.44
2023-01-08T06:16:09.139Z,5.37
2023-01-08T06:18:36.728Z,5.31
2023-01-08T06:21:05.116Z,5.25
2023-01-08T06:23:32.783Z,5.28
2023-01-08T06:26:00.828Z,5.36
2023-01-08T06:28:27.900Z,5.47
2023-01-08T06:30:57.863Z,5.57
2023-01-08T06:33:25.181Z,5.66
2023-01-08T06:35:52.273Z,5.72
2023-01-08T06:38:19.569Z,5.72
2023-01-08T06:40:49.740Z,5.76
2023-01-08T06:43:17.927Z,5.76
2023-01-08T06:45:44.955Z,5.75
2023-01-08T06:48:12.062Z,5.80
2023-01-08T06:50:39.102Z,5.78
2023-01-08T06:53:06.144Z,5.83
2023-01-08T06:55:33.484Z,5.88
2023-01-08T06:58:00.595Z,5.88
2023-01-08T07:00:27.684Z,5.91
2023-01-08T07:02:55.620Z,5.91
2023-01-08T07:05:24.179Z,5.89
2023-01-08T07:07:51.209Z,5.85
2023-01-08T07:10:19.999Z,5.84
2023-01-08T07:12:47.781Z,5.79
2023-01-08T07:15:15.364Z,5.76
2023-01-08T07:17:42.412Z,5.73
2023-01-08T07:20:10.409Z,5.74
2023-01-08T07:22:37.478Z,5.69
2023-01-08T07:25:05.282Z,5.66
2023-01-08T07:27:32.369Z,5.69
2023-01-08T07:29:59.457Z,5.72
2023-01-08T07:32:26.557Z,5.73
2023-01-08T07:34:54.638Z,5.72
2023-01-08T07:37:21.814Z,5.75
2023-01-08T07:39:48.946Z,5.80
2023-01-08T07:42:15.961Z,5.84
2023-01-08T07:44:42.998Z,5.91
2023-01-08T07:47:10.068Z,6.06
2023-01-08T07:49:37.095Z,6.11
2023-01-08T07:52:04.186Z,6.17
2023-01-08T07:54:31.328Z,6.17
2023-01-08T07:56:58.356Z,6.16
2023-01-08T07:59:25.406Z,6.20
2023-01-08T08:01:52.626Z,6.14
2023-01-08T08:04:19.852Z,6.15
2023-01-08T08:06:46.968Z,6.18
2023-01-08T08:09:14.224Z,6.23
2023-01-08T08:11:41.305Z,6.23
2023-01-08T08:14:09.140Z,6.23
2023-01-08T08:16:36.210Z,6.25
2023-01-08T08:19:03.441Z,6.24
2023-01-08T08:21:30.685Z,6.24
2023-01-08T08:23:57.896Z,6.25
2023-01-08T08:26:25.107Z,6.26
2023-01-08T08:28:52.182Z,6.27
2023-01-08T08:31:19.277Z,6.28
2023-01-08T08:33:46.515Z,6.28
2023-01-08T08:36:13.700Z,6.25
2023-01-08T08:38:40.712Z,6.21
2023-01-08T08:41:07.837Z,6.27
2023-01-08T08:43:34.858Z,6.25
2023-01-08T08:46:01.887Z,6.28
2023-01-08T08:48:29.039Z,6.25
2023-01-08T08:50:56.079Z,6.29
2023-01-08T08:53:23.161Z,6.28
2023-01-08T08:55:50.234Z,6.31
2023-01-08T08:58:17.321Z,6.36
2023-01-08T09:00:44.437Z,6.36
2023-01-08T09:03:17.231Z,6.42
2023-01-08T09:05:45.245Z,6.43
2023-01-08T09:08:13.073Z,6.46
2023-01-08T09:10:42.172Z,6.47
2023-01-08T09:13:09.672Z,6.52
2023-01-08T09:15:37.956Z,6.55
2023-01-08T09:18:05.345Z,6.51
2023-01-08T09:20:32.427Z,6.53
2023-01-08T09:23:00.303Z,6.49
2023-01-08T09:25:27.668Z,6.53
2023-01-08T09:28:07.887Z,6.53
2023-01-08T09:30:35.315Z,6.53
2023-01-08T09:33:03.427Z,6.55
2023-01-08T09:35:34.296Z,6.56
2023-01-08T09:38:01.474Z,6.59
2023-01-08T09:40:32.525Z,6.62
2023-01-08T09:43:01.701Z,6.67
2023-01-08T09:45:31.569Z,6.73
2023-01-08T09:48:01.629Z,6.79
2023-01-08T09:50:30.451Z,6.86
2023-01-08T09:52:58.041Z,6.95
2023-01-08T09:55:25.789Z,7.00
2023-01-08T09:57:53.398Z,7.07
2023-01-08T10:00:30.162Z,7.14
2023-01-08T10:02:57.925Z,7.22
2023-01-08T10:05:29.236Z,7.29
2023-01-08T10:07:56.262Z,7.36
2023-01-08T10:10:29.469Z,7.44
2023-01-08T10:12:56.601Z,7.50
2023-01-08T10:15:23.931Z,7.62
2023-01-08T10:18:05.215Z,7.67
2023-01-08T10:20:33.037Z,7.74
2023-01-08T10:23:12.099Z,7.84
2023-01-08T10:25:55.451Z,7.91
2023-01-08T10:28:37.680Z,8.02
2023-01-08T10:31:08.175Z,8.11
2023-01-08T10:33:43.596Z,8.18
2023-01-08T10:36:12.357Z,8.27
2023-01-08T10:38:57.430Z,8.31
2023-01-08T10:41:24.664Z,8.34
2023-01-08T10:43:55.251Z,8.36
2023-01-08T10:46:36.519Z,8.36
2023-01-08T10:49:05.520Z,8.36
2023-01-08T10:51:33.033Z,8.35
2023-01-08T10:54:12.334Z,8.37
2023-01-08T10:56:41.772Z,8.35
2023-01-08T10:59:22.963Z,8.33
2023-01-08T11:01:52.195Z,8.34
2023-01-08T11:04:23.408Z,8.31
2023-01-08T11:06:51.076Z,8.28
2023-01-08T11:09:25.423Z,8.28
2023-01-08T11:11:52.596Z,8.24
2023-01-08T11:14:31.615Z,8.19
2023-01-08T11:16:59.300Z,8.18
2023-01-08T11:19:30.788Z,8.17
2023-01-08T11:22:20.201Z,8.17
2023-01-08T11:24:47.742Z,8.17
2023-01-08T11:27:26.479Z,8.18
2023-01-08T11:30:01.097Z,8.16
2023-01-08T11:32:31.084Z,8.10
2023-01-08T11:35:04.822Z,8.11
2023-01-08T11:37:35.381Z,8.10
2023-01-08T11:40:02.765Z,8.11
2023-01-08T11:42:46.623Z,8.13
2023-01-08T11:45:32.304Z,8.16
2023-01-08T11:48:08.691Z,8.19
2023-01-08T11:50:43.103Z,8.23
2023-01-08T11:53:19.177Z,8.26
2023-01-08T11:56:13.568Z,8.27
2023-01-08T11:59:18.315Z,8.31
2023-01-08T12:02:13.351Z,8.31
2023-01-08T12:05:02.253Z,8.36
2023-01-08T12:07:44.293Z,8.36
2023-01-08T12:10:15.295Z,8.40
2023-01-08T12:13:22.347Z,8.45
2023-01-08T12:15:58.425Z,8.53
2023-01-08T12:18:52.226Z,8.56
2023-01-08T12:21:32.563Z,8.60
2023-01-08T12:24:18.952Z,8.61
2023-01-08T12:27:56.549Z,8.60
2023-01-08T12:30:34.855Z,8.63
2023-01-08T12:33:23.876Z,8.66
2023-01-08T12:35:54.151Z,8.73
2023-01-08T12:38:25.129Z,8.74
2023-01-08T12:40:57.195Z,8.80
2023-01-08T12:43:34.566Z,8.86
2023-01-08T12:46:02.566Z,8.88
2023-01-08T12:48:32.831Z,8.87
2023-01-08T12:51:09.023Z,8.86
2023-01-08T12:53:54.656Z,8.88
2023-01-08T12:57:00.269Z,8.90
2023-01-08T12:59:40.328Z,8.85
2023-01-08T13:02:40.209Z,8.77
2023-01-08T13:05:20.924Z,8.79
2023-01-08T13:07:51.375Z,8.76
2023-01-08T13:10:27.449Z,8.75
2023-01-08T13:12:55.449Z,8.77
2023-01-08T13:15:25.897Z,8.77
2023-01-08T13:17:55.175Z,8.74
2023-01-08T13:20:28.916Z,8.72
2023-01-08T13:22:58.468Z,8.74
2023-01-08T13:25:25.631Z,8.72
2023-01-08T13:27:52.813Z,8.72
2023-01-08T13:30:49.933Z,8.66
2023-01-08T13:33:35.608Z,8.64
2023-01-08T13:36:17.404Z,8.69
2023-01-08T13:38:45.227Z,8.66
2023-01-08T13:41:33.762Z,8.68
2023-01-08T13:44:02.392Z,8.63
2023-01-08T13:46:29.653Z,8.62
2023-01-08T13:49:01.191Z,8.60
2023-01-08T13:51:44.528Z,8.57
2023-01-08T13:54:17.478Z,8.56
2023-01-08T13:56:46.088Z,8.51
2023-01-08T13:59:21.600Z,8.51
2023-01-08T14:01:53.573Z,8.51
2023-01-08T14:04:22.600Z,8.50
2023-01-08T14:06:49.769Z,8.47
2023-01-08T14:09:24.428Z,8.47
2023-01-08T14:11:53.597Z,8.49
2023-01-08T14:14:22.011Z,8.50
2023-01-08T14:16:50.777Z,8.46
2023-01-08T14:19:20.353Z,8.48
2023-01-08T14:21:49.741Z,8.48
2023-01-08T14:24:17.575Z,8.48
2023-01-08T14:26:52.103Z,8.46
2023-01-08T14:29:21.958Z,8.46
2023-01-08T14:31:54.535Z,8.45
2023-01-08T14:34:23.365Z,8.44
2023-01-08T14:36:51.684Z,8.41
2023-01-08T14:39:40.036Z,8.36
2023-01-08T14:42:40.007Z,8.31
2023-01-08T14:45:11.653Z,8.30
2023-01-08T14:47:42.986Z,8.28
2023-01-08T14:50:18.700Z,8.26
2023-01-08T14:52:46.204Z,8.26
2023-01-08T14:55:18.798Z,8.22
2023-01-08T14:57:46.953Z,8.23
2023-01-08T15:00:19.735Z,8.22
2023-01-08T15:02:47.651Z,8.24
2023-01-08T15:05:18.349Z,8.21
2023-01-08T15:07:55.772Z,8.23
2023-01-08T15:10:33.685Z,8.23
2023-01-08T15:13:00.874Z,8.25
2023-01-08T15:15:28.010Z,8.23
2023-01-08T15:17:55.179Z,8.19
2023-01-08T15:20:26.690Z,8.20
2023-01-08T15:22:53.778Z,8.18
2023-01-08T15:25:28.562Z,8.14
2023-01-08T15:27:59.752Z,8.14
2023-01-08T15:30:35.679Z,8.08
2023-01-08T15:33:07.132Z,8.06
2023-01-08T15:35:34.148Z,8.05
2023-01-08T15:38:01.360Z,8.04
2023-01-08T15:40:28.399Z,8.06
2023-01-08T15:43:10.395Z,8.01
2023-01-08T15:45:39.550Z,8.02
2023-01-08T15:48:06.973Z,8.03
2023-01-08T15:50:37.958Z,8.02
2023-01-08T15:53:08.203Z,8.01
2023-01-08T15:55:35.332Z,7.97
2023-01-08T15:58:02.384Z,7.94
2023-01-08T16:00:29.984Z,7.92
2023-01-08T16:02:59.467Z,7.94
2023-01-08T16:05:28.936Z,7.96
2023-01-08T16:07:56.115Z,7.94
2023-01-08T16:10:23.215Z,7.97
2023-01-08T16:12:50.453Z,7.99
2023-01-08T16:15:17.909Z,7.95
2023-01-08T16:17:45.309Z,7.93
2023-01-08T16:20:13.510Z,7.89
2023-01-08T16:22:40.772Z,7.88
2023-01-08T16:25:09.315Z,7.85
2023-01-08T16:27:38.337Z,7.85
2023-01-08T16:30:08.188Z,7.90
2023-01-08T16:32:35.312Z,7.86
2023-01-08T16:35:02.362Z,7.90
2023-01-08T16:37:30.871Z,7.88
2023-01-08T16:39:57.897Z,7.93
2023-01-08T16:42:25.030Z,7.93
2023-01-08T16:44:52.091Z,7.95
2023-01-08T16:47:19.212Z,7.98
2023-01-08T16:49:46.280Z,7.97
2023-01-08T16:52:13.387Z,7.92
2023-01-08T16:54:40.597Z,7.87
2023-01-08T16:57:07.665Z,7.87
2023-01-08T16:59:34.753Z,7.85
2023-01-08T17:02:01.848Z,7.85
2023-01-08T17:04:29.674Z,7.92
2023-01-08T17:06:57.189Z,7.92
2023-01-08T17:09:25.315Z,7.87
2023-01-08T17:11:54.363Z,7.85
2023-01-08T17:14:21.459Z,7.83
2023-01-08T17:16:49.113Z,7.79
2023-01-08T17:19:17.614Z,7.78
2023-01-08T17:21:45.934Z,7.72
2023-01-08T17:24:13.120Z,7.71
2023-01-08T17:26:40.284Z,7.65
2023-01-08T17:29:07.331Z,7.66
2023-01-08T17:31:39.730Z,7.65
2023-01-08T17:34:08.439Z,7.60
2023-01-08T17:36:36.188Z,7.67
2023-01-08T17:39:03.584Z,7.65
2023-01-08T17:41:49.080Z,7.65
2023-01-08T17:44:16.199Z,7.64
2023-01-08T17:46:45.089Z,7.68
2023-01-08T17:49:13.920Z,7.74
2023-01-08T17:51:41.910Z,7.78
2023-01-08T17:54:15.453Z,7.77
2023-01-08T17:56:43.375Z,7.79
2023-01-08T17:59:13.968Z,7.74
2023-01-08T18:01:41.189Z,7.65
2023-01-08T18:04:08.274Z,7.58
2023-01-08T18:06:35.943Z,7.56
2023-01-08T18:09:03.706Z,7.60
2023-01-08T18:11:31.091Z,7.55
2023-01-08T18:14:00.057Z,7.52
2023-01-08T18:16:28.568Z,7.47
2023-01-08T18:18:56.626Z,7.44
2023-01-08T18:21:24.089Z,7.40
2023-01-08T18:23:51.313Z,7.32
2023-01-08T18:26:20.536Z,7.28
2023-01-08T18:28:48.303Z,7.19
2023-01-08T18:31:15.786Z,7.12
2023-01-08T18:33:42.944Z,7.00
2023-01-08T18:36:12.018Z,6.99
2023-01-08T18:38:41.168Z,6.93
2023-01-08T18:41:09.099Z,6.91
2023-01-08T18:43:36.640Z,6.83
2023-01-08T18:46:06.560Z,6.78
2023-01-08T18:48:34.366Z,6.71
2023-01-08T18:51:05.766Z,6.62
2023-01-08T18:53:34.032Z,6.58
2023-01-08T18:56:01.865Z,6.51
2023-01-08T18:58:29.288Z,6.52
2023-01-08T19:01:02.924Z,6.55
2023-01-08T19:03:30.016Z,6.60
2023-01-08T19:05:57.109Z,6.63
2023-01-08T19:08:24.311Z,6.63
2023-01-08T19:10:51.387Z,6.66
2023-01-08T19:13:19.088Z,6.70
2023-01-08T19:15:46.875Z,6.71
2023-01-08T19:18:14.002Z,6.79
2023-01-08T19:20:43.354Z,6.83
2023-01-08T19:23:10.530Z,6.80
2023-01-08T19:25:40.779Z,6.80
2023-01-08T19:28:08.529Z,6.78
2023-01-08T19:30:35.797Z,6.81
2023-01-08T19:33:02.870Z,6.83
2023-01-08T19:35:30.055Z,6.84
2023-01-08T19:37:57.144Z,6.78
2023-01-08T19:40:24.403Z,6.78
2023-01-08T19:43:11.705Z,6.83
2023-01-08T19:45:38.828Z,6.81
2023-01-08T19:48:06.308Z,6.84
2023-01-08T19:50:34.164Z,6.85
2023-01-08T19:53:01.250Z,6.86
2023-01-08T19:55:28.293Z,6.85
2023-01-08T19:57:55.366Z,6.89
2023-01-08T20:00:22.488Z,6.84
2023-01-08T20:02:51.219Z,6.83
2023-01-08T20:05:18.481Z,6.83
2023-01-08T20:07:45.559Z,6.77
2023-01-08T20:10:13.272Z,6.73
2023-01-08T20:12:40.378Z,6.70
2023-01-08T20:15:08.111Z,6.65
2023-01-08T20:17:35.344Z,6.64
2023-01-08T20:20:02.377Z,6.59
2023-01-08T20:22:31.077Z,6.60
2023-01-08T20:24:58.644Z,6.57
2023-01-08T20:27:25.923Z,6.57
2023-01-08T20:29:53.003Z,6.56
2023-01-08T20:32:22.154Z,6.42
2023-01-08T20:34:50.922Z,6.39
2023-01-08T20:37:17.994Z,6.31
2023-01-08T20:39:46.126Z,6.19
2023-01-08T20:42:17.636Z,6.13
2023-01-08T20:44:54.501Z,6.06
2023-01-08T20:47:21.580Z,6.02
2023-01-08T20:49:48.626Z,6.00
2023-01-08T20:52:16.396Z,5.93
2023-01-08T20:54:43.426Z,5.92
2023-01-08T20:57:10.803Z,5.90
2023-01-08T20:59:37.838Z,5.88
2023-01-08T21:02:06.053Z,5.87
2023-01-08T21:04:33.421Z,5.85
2023-01-08T21:07:00.508Z,5.82
2023-01-08T21:09:28.781Z,5.81
2023-01-08T21:11:55.863Z,5.84
2023-01-08T21:14:22.932Z,5.81
2023-01-08T21:16:50.158Z,5.85
2023-01-08T21:19:17.233Z,5.89
2023-01-08T21:21:45.646Z,5.86
2023-01-08T21:24:13.071Z,5.86
2023-01-08T21:26:40.427Z,5.92
2023-01-08T21:29:08.912Z,5.90
2023-01-08T21:31:37.964Z,5.91
2023-01-08T21:34:06.076Z,5.90
2023-01-08T21:36:33.335Z,5.88
2023-01-08T21:39:01.317Z,5.80
2023-01-08T21:41:48.896Z,5.75
2023-01-08T21:44:36.656Z,5.72
2023-01-08T21:47:05.685Z,5.65
2023-01-08T21:49:32.796Z,5.62
2023-01-08T21:52:18.224Z,5.61
2023-01-08T21:54:45.259Z,5.63
2023-01-08T21:57:12.284Z,5.62
2023-01-08T21:59:42.098Z,5.67
2023-01-08T22:02:15.022Z,5.60
2023-01-08T22:04:43.191Z,5.61
2023-01-08T22:07:10.308Z,5.60
2023-01-08T22:09:37.375Z,5.58
2023-01-08T22:12:04.469Z,5.57
2023-01-08T22:14:31.729Z,5.61
2023-01-08T22:16:58.955Z,5.67
2023-01-08T22:19:26.511Z,5.66
2023-01-08T22:21:53.616Z,5.65
2023-01-08T22:24:20.635Z,5.66
2023-01-08T22:26:48.584Z,5.66
2023-01-08T22:29:15.688Z,5.66
2023-01-08T22:31:42.766Z,5.73
2023-01-08T22:34:14.066Z,5.78
2023-01-08T22:36:41.242Z,5.86
2023-01-08T22:39:08.339Z,5.93
2023-01-08T22:41:35.367Z,5.97
2023-01-08T22:44:02.557Z,5.98
2023-01-08T22:46:29.651Z,6.00
2023-01-08T22:48:56.697Z,6.00
2023-01-08T22:51:27.332Z,5.97
2023-01-08T22:53:56.177Z,5.96
2023-01-08T22:56:23.994Z,5.93
2023-01-08T22:58:51.496Z,5.90
2023-01-08T23:01:24.449Z,5.93
2023-01-08T23:03:53.209Z,5.94
2023-01-08T23:06:21.836Z,5.91
2023-01-08T23:08:49.244Z,5.87
2023-01-08T23:11:17.845Z,5.84
2023-01-08T23:13:45.225Z,5.81
2023-01-08T23:16:14.872Z,5.84
2023-01-08T23:18:42.544Z,5.92
2023-01-08T23:21:15.496Z,5.95
2023-01-08T23:23:43.105Z,6.00
2023-01-08T23:26:19.381Z,6.06
2023-01-08T23:28:47.175Z,6.15
2023-01-08T23:31:16.717Z,6.18
2023-01-08T23:33:43.854Z,6.22
2023-01-08T23:36:12.361Z,6.24
2023-01-08T23:38:39.495Z,6.26
2023-01-08T23:41:07.142Z,6.25
2023-01-08T23:43:34.219Z,6.25
2023-01-08T23:46:05.560Z,6.22
2023-01-08T23:48:32.590Z,6.21
2023-01-08T23:50:59.661Z,6.19
2023-01-08T23:53:27.123Z,6.19
2023-01-08T23:55:54.163Z,6.22
2023-01-08T23:58:21.211Z,6.23
